DAOO Airport Information

Runway Information
Runway 07 Length 10039 ft width 148 ft
Elevation 295 ft Threshold 0 ft Heading 67
Runway 25 Length 10039 ft Width 148 ft
Elevation 295 ft Threshold 196 ft Heading 247
Airport Frequencies
Type APP Name ORAN APP Frequency 128.2 MHZ
Type TWR Name ORAN TWR Frequency 118.1 MHZ
Airport Navaids
Type VOR-DME Name Oran Frequency 114000 KHZ
Airport Weather Information & NOTAM
ADDS - METARS form results

(1340 UTC 23 February 2019)
Data provider http://aviationweather.gov/metar/data/
 
METAR text: DAOO 231330Z 18004KT 130V230 CAVOK 21/05 Q1026
Conditions at: DAOO (ORAN/ES SENIA , DZ) observed 1330 UTC 23 February 2019
Temperature: 21.0°C (70°F)
Dewpoint: 5.0°C (41°F) [RH = 35%]
Pressure (altimeter): 30.30 inches Hg (1026.0 mb)
Winds: from the S (180 degrees) at 5 MPH (4 knots; 2.1 m/s)
Visibility: 6 or more miles (10+ km)
Ceiling: ceiling and visibility are OK
Clouds: unknown
Weather: no significant weather observed at this time

METAR text: DAOO 231300Z 20006KT CAVOK 20/05 Q1027
Conditions at: DAOO (ORAN/ES SENIA , DZ) observed 1300 UTC 23 February 2019
Temperature: 20.0°C (68°F)
Dewpoint: 5.0°C (41°F) [RH = 37%]
Pressure (altimeter): 30.32 inches Hg (1027.0 mb)
Winds: from the SSW (200 degrees) at 7 MPH (6 knots; 3.1 m/s)
Visibility: 6 or more miles (10+ km)
Ceiling: ceiling and visibility are OK
Clouds: unknown
Weather: no significant weather observed at this time

Forecast for: DAOO (ORAN/ES SENIA , DZ)
Text: TAF DAOO 231100Z 2312/2412 26008KT CAVOK
Forecast period: 1200 to 2000 UTC 23 February 2019
Forecast type: FROM: standard forecast or significant change
Winds: from the W (260 degrees) at 9 MPH (8 knots; 4.1 m/s)
Visibility: 6 or more miles 10+ km)
Ceiling: unknown
Clouds: missing
Weather: NSW  (no significant weather)
Text: BECMG 2320/2323 VRB02KT 8000 NSC
Forecast period: 2000 UTC 23 February 2019 to 0900 UTC 24 February 2019
Forecast type: BECOMING: Conditions expected to become as follows by 2300 UTC 23 February 2019
Winds: variable direction winds at 2 MPH (2 knots; 1.0 m/s)
Visibility: 5 miles (8 km)
Ceiling: unknown
Clouds: missing
Weather: NSW  (no significant weather)
Text: TEMPO 2322/2408 3000 BR
Forecast period: 2200 UTC 23 February 2019 to 0800 UTC 24 February 2019
Forecast type: TEMPORARY: The following changes expected for less than half the time period
Visibility: 1.86 miles (2.99 km)
Ceiling: unknown
Clouds: missing
Weather: BR  (mist)
Text: BECMG 2409/2411 21008KT CAVOK
Forecast period: 0900 to 1200 UTC 24 February 2019
Forecast type: BECOMING: Conditions expected to become as follows by 1100 UTC 24 February 2019
Winds: from the SSW (210 degrees) at 9 MPH (8 knots; 4.1 m/s)
Visibility: 6 or more miles 10+ km)
Ceiling: unknown
Clouds: missing
Weather: NSW  (no significant weather)